createdAt,value
2023-04-23T00:00:49.992Z,3.50
2023-04-23T00:03:31.080Z,3.47
2023-04-23T00:06:00.938Z,3.13
2023-04-23T00:08:29.669Z,3.10
2023-04-23T00:10:57.796Z,3.30
2023-04-23T00:13:26.008Z,3.58
2023-04-23T00:15:54.349Z,3.25
2023-04-23T00:18:22.017Z,3.40
2023-04-23T00:20:49.778Z,3.40
2023-04-23T00:23:18.878Z,3.15
2023-04-23T00:25:46.536Z,3.30
2023-04-23T00:28:14.201Z,3.40
2023-04-23T00:30:41.896Z,3.53
2023-04-23T00:33:09.655Z,3.40
2023-04-23T00:35:37.314Z,3.58
2023-04-23T00:38:04.938Z,3.95
2023-04-23T00:40:34.068Z,3.55
2023-04-23T00:43:02.318Z,3.60
2023-04-23T00:45:38.749Z,3.83
2023-04-23T00:48:08.054Z,3.53
2023-04-23T00:50:35.782Z,3.97
2023-04-23T00:53:03.591Z,3.33
2023-04-23T00:55:31.497Z,3.67
2023-04-23T00:58:00.775Z,3.67
2023-04-23T01:00:28.844Z,3.75
2023-04-23T01:02:58.237Z,3.88
2023-04-23T01:05:26.676Z,3.80
2023-04-23T01:07:55.133Z,3.70
2023-04-23T01:10:22.924Z,3.40
2023-04-23T01:12:51.507Z,4.00
2023-04-23T01:15:20.516Z,3.63
2023-04-23T01:17:48.355Z,3.22
2023-04-23T01:20:16.382Z,3.50
2023-04-23T01:22:45.976Z,3.50
2023-04-23T01:25:13.778Z,3.70
2023-04-23T01:27:42.329Z,3.75
2023-04-23T01:30:10.937Z,3.53
2023-04-23T01:32:39.171Z,4.10
2023-04-23T01:35:07.956Z,4.10
2023-04-23T01:37:36.914Z,3.80
2023-04-23T01:40:07.939Z,4.00
2023-04-23T01:42:35.675Z,4.20
2023-04-23T01:45:04.092Z,4.30
2023-04-23T01:47:31.979Z,3.70
2023-04-23T01:49:59.825Z,4.20
2023-04-23T01:52:27.549Z,3.78
2023-04-23T01:54:55.316Z,4.13
2023-04-23T01:57:26.582Z,4.18
2023-04-23T01:59:59.923Z,4.28
2023-04-23T02:02:27.718Z,4.32
2023-04-23T02:04:56.755Z,4.03
2023-04-23T02:07:24.447Z,4.38
2023-04-23T02:09:52.087Z,3.55
2023-04-23T02:12:19.853Z,4.15
2023-04-23T02:14:48.874Z,4.18
2023-04-23T02:17:16.565Z,4.03
2023-04-23T02:19:44.215Z,4.32
2023-04-23T02:22:12.072Z,3.75
2023-04-23T02:24:42.464Z,4.68
2023-04-23T02:27:10.358Z,5.05
2023-04-23T02:29:38.145Z,4.50
2023-04-23T02:32:07.575Z,4.15
2023-04-23T02:34:35.568Z,4.47
2023-04-23T02:37:04.956Z,4.82
2023-04-23T02:39:32.854Z,4.68
2023-04-23T02:42:00.632Z,4.78
2023-04-23T02:44:28.322Z,4.35
2023-04-23T02:46:56.276Z,5.22
2023-04-23T02:49:26.134Z,4.25
2023-04-23T02:51:53.851Z,4.72
2023-04-23T02:54:21.604Z,4.70
2023-04-23T02:56:49.420Z,5.10
2023-04-23T02:59:17.141Z,4.78
2023-04-23T03:01:44.791Z,4.88
2023-04-23T03:04:13.416Z,4.45
2023-04-23T03:06:42.669Z,4.78
2023-04-23T03:09:10.795Z,4.35
2023-04-23T03:11:38.440Z,5.00
2023-04-23T03:14:06.361Z,5.60
2023-04-23T03:16:34.569Z,4.70
2023-04-23T03:19:02.328Z,5.40
2023-04-23T03:21:29.938Z,4.72
2023-04-23T03:23:59.007Z,4.70
2023-04-23T03:26:26.631Z,4.88
2023-04-23T03:28:54.882Z,4.28
2023-04-23T03:31:22.596Z,4.70
2023-04-23T03:33:50.394Z,4.65
2023-04-23T03:36:18.070Z,5.03
2023-04-23T03:38:45.682Z,5.28
2023-04-23T03:41:14.675Z,4.90
2023-04-23T03:43:42.370Z,4.72
2023-04-23T03:46:10.137Z,4.22
2023-04-23T03:48:37.839Z,4.40
2023-04-23T03:51:05.655Z,5.15
2023-04-23T03:53:33.352Z,4.20
2023-04-23T03:56:01.007Z,4.38
2023-04-23T03:58:30.028Z,4.57
2023-04-23T04:00:57.702Z,4.25
2023-04-23T04:03:26.109Z,5.03
2023-04-23T04:05:54.195Z,4.50
2023-04-23T04:08:22.505Z,4.50
2023-04-23T04:10:50.136Z,3.85
2023-04-23T04:13:17.815Z,4.50
2023-04-23T04:15:46.791Z,3.60
2023-04-23T04:18:14.460Z,4.10
2023-04-23T04:20:44.247Z,3.75
2023-04-23T04:23:11.916Z,4.05
2023-04-23T04:25:40.154Z,4.10
2023-04-23T04:28:09.310Z,3.78
2023-04-23T04:30:38.171Z,3.67
2023-04-23T04:33:07.256Z,4.35
2023-04-23T04:35:34.886Z,4.25
2023-04-23T04:38:02.653Z,4.90
2023-04-23T04:40:30.477Z,4.53
2023-04-23T04:43:00.136Z,4.80
2023-04-23T04:45:27.827Z,4.93
2023-04-23T04:47:55.673Z,5.85
2023-04-23T04:50:24.752Z,5.10
2023-04-23T04:52:52.384Z,5.47
2023-04-23T04:55:20.092Z,5.07
2023-04-23T04:57:47.842Z,5.88
2023-04-23T05:00:24.260Z,6.45
2023-04-23T05:02:52.700Z,5.20
2023-04-23T05:05:21.314Z,5.85
2023-04-23T05:07:59.322Z,5.97
2023-04-23T05:10:27.073Z,6.25
2023-04-23T05:12:54.720Z,6.13
2023-04-23T05:15:22.404Z,5.63
2023-04-23T05:17:53.330Z,6.57
2023-04-23T05:20:22.219Z,6.20
2023-04-23T05:22:51.276Z,6.60
2023-04-23T05:25:19.059Z,6.43
2023-04-23T05:27:46.780Z,6.50
2023-04-23T05:30:15.103Z,7.05
2023-04-23T05:32:42.809Z,6.30
2023-04-23T05:35:10.886Z,6.90
2023-04-23T05:37:38.631Z,6.80
2023-04-23T05:40:09.261Z,6.47
2023-04-23T05:42:37.636Z,6.72
2023-04-23T05:45:08.604Z,6.28
2023-04-23T05:47:36.864Z,7.05
2023-04-23T05:50:11.218Z,6.60
2023-04-23T05:52:39.500Z,6.72
2023-04-23T05:55:09.968Z,7.32
2023-04-23T05:57:37.999Z,7.60
2023-04-23T06:00:09.771Z,7.30
2023-04-23T06:02:37.800Z,6.75
2023-04-23T06:05:06.181Z,6.90
2023-04-23T06:07:33.937Z,7.57
2023-04-23T06:10:02.035Z,7.00
2023-04-23T06:12:31.162Z,7.75
2023-04-23T06:14:58.938Z,6.35
2023-04-23T06:17:26.650Z,6.97
2023-04-23T06:19:54.356Z,8.13
2023-04-23T06:22:22.070Z,7.30
2023-04-23T06:24:49.708Z,7.43
2023-04-23T06:27:17.349Z,7.15
2023-04-23T06:29:46.382Z,7.70
2023-04-23T06:32:14.060Z,7.95
2023-04-23T06:34:53.238Z,8.02
2023-04-23T06:37:29.788Z,7.45
2023-04-23T06:39:57.644Z,7.72
2023-04-23T06:42:25.325Z,7.63
2023-04-23T06:44:54.472Z,8.20
2023-04-23T06:47:22.119Z,7.78
2023-04-23T06:49:49.916Z,7.97
2023-04-23T06:52:17.622Z,7.65
2023-04-23T06:54:45.378Z,7.85
2023-04-23T06:57:13.013Z,7.90
2023-04-23T06:59:40.777Z,7.78
2023-04-23T07:02:10.101Z,7.90
2023-04-23T07:04:37.946Z,7.63
2023-04-23T07:07:05.817Z,7.82
2023-04-23T07:09:33.523Z,7.55
2023-04-23T07:12:01.611Z,7.85
2023-04-23T07:14:29.313Z,8.07
2023-04-23T07:16:57.112Z,10.40
2023-04-23T07:19:27.384Z,42.13
2023-04-23T07:21:55.129Z,16.38
2023-04-23T07:24:31.771Z,8.40
2023-04-23T07:26:59.452Z,7.30
2023-04-23T07:29:27.083Z,6.45
2023-04-23T07:31:54.794Z,7.20
2023-04-23T07:34:22.479Z,7.00
2023-04-23T07:36:52.102Z,7.38
2023-04-23T07:39:19.823Z,7.03
2023-04-23T07:41:47.653Z,7.05
2023-04-23T07:44:15.658Z,7.43
2023-04-23T07:46:43.293Z,7.38
2023-04-23T07:49:11.010Z,6.75
2023-04-23T07:51:38.842Z,7.00
2023-04-23T07:54:07.904Z,6.50
2023-04-23T07:56:36.309Z,6.85
2023-04-23T07:59:04.430Z,7.10
2023-04-23T08:01:34.025Z,7.38
2023-04-23T08:04:03.176Z,7.15
2023-04-23T08:06:36.982Z,6.90
2023-04-23T08:09:06.388Z,7.75
2023-04-23T08:11:35.453Z,7.03
2023-04-23T08:14:03.208Z,5.93
2023-04-23T08:16:31.720Z,6.32
2023-04-23T08:19:05.251Z,5.60
2023-04-23T08:21:34.448Z,6.43
2023-04-23T08:24:02.822Z,6.68
2023-04-23T08:26:30.693Z,5.72
2023-04-23T08:29:00.614Z,5.50
2023-04-23T08:31:28.415Z,5.28
2023-04-23T08:33:56.396Z,5.15
2023-04-23T08:36:24.422Z,5.05
2023-04-23T08:38:52.185Z,5.60
2023-04-23T08:41:22.606Z,4.25
2023-04-23T08:43:56.833Z,4.60
2023-04-23T08:46:28.762Z,4.85
2023-04-23T08:49:00.168Z,4.18
2023-04-23T08:51:32.489Z,4.50
2023-04-23T08:54:05.512Z,4.38
2023-04-23T08:56:33.934Z,4.22
2023-04-23T08:59:07.789Z,3.58
2023-04-23T09:01:36.926Z,4.07
2023-04-23T09:04:04.723Z,4.32
2023-04-23T09:06:33.129Z,3.80
2023-04-23T09:09:01.114Z,4.38
2023-04-23T09:11:29.789Z,4.20
2023-04-23T09:13:58.323Z,3.65
2023-04-23T09:16:26.032Z,4.32
2023-04-23T09:18:55.217Z,4.13
2023-04-23T09:21:22.937Z,3.90
2023-04-23T09:23:52.386Z,4.10
2023-04-23T09:26:22.110Z,3.65
2023-04-23T09:28:51.156Z,4.20
2023-04-23T09:31:22.839Z,4.43
2023-04-23T09:33:53.769Z,4.20
2023-04-23T09:36:23.998Z,3.67
2023-04-23T09:38:51.970Z,3.88
2023-04-23T09:41:23.761Z,3.45
2023-04-23T09:43:53.541Z,2.97
2023-04-23T09:46:33.716Z,3.65
2023-04-23T09:49:03.914Z,4.03
2023-04-23T09:51:42.143Z,3.70
2023-04-23T09:54:14.066Z,3.75
2023-04-23T09:56:42.082Z,3.50
2023-04-23T09:59:29.424Z,2.92
2023-04-23T10:02:06.007Z,3.50
2023-04-23T10:04:35.010Z,3.42
2023-04-23T10:07:19.035Z,3.45
2023-04-23T10:09:48.425Z,3.88
2023-04-23T10:14:49.280Z,3.28
2023-04-23T10:17:17.708Z,3.40
2023-04-23T10:19:46.099Z,3.25
2023-04-23T10:22:19.834Z,3.30
2023-04-23T10:24:53.050Z,3.38
2023-04-23T10:27:33.457Z,3.65
2023-04-23T10:30:13.309Z,3.65
2023-04-23T10:32:41.819Z,3.60
2023-04-23T10:35:10.790Z,4.03
2023-04-23T10:37:40.272Z,3.33
2023-04-23T10:40:12.310Z,3.35
2023-04-23T10:42:40.696Z,3.15
2023-04-23T10:45:23.467Z,3.33
2023-04-23T10:47:53.942Z,3.40
2023-04-23T10:50:26.503Z,3.20
2023-04-23T10:52:57.647Z,3.28
2023-04-23T10:55:27.959Z,2.90
2023-04-23T10:58:03.393Z,2.88
2023-04-23T11:03:29.984Z,3.63
2023-04-23T11:05:57.720Z,3.58
2023-04-23T11:08:27.006Z,3.35
2023-04-23T11:10:57.512Z,2.80
2023-04-23T11:13:26.090Z,3.58
2023-04-23T11:16:15.573Z,3.03
2023-04-23T11:18:56.687Z,3.13
2023-04-23T11:21:24.476Z,2.80
2023-04-23T11:23:53.815Z,2.50
2023-04-23T11:26:23.110Z,2.78
2023-04-23T11:28:53.811Z,3.10
2023-04-23T11:31:21.886Z,2.22
2023-04-23T11:33:49.598Z,2.72
2023-04-23T11:36:17.448Z,2.58
2023-04-23T11:38:47.303Z,2.70
2023-04-23T11:41:17.421Z,2.97
2023-04-23T11:43:45.929Z,2.70
2023-04-23T11:46:16.083Z,2.80
2023-04-23T11:48:43.783Z,2.22
2023-04-23T11:51:11.434Z,2.22
2023-04-23T11:53:47.173Z,2.28
2023-04-23T11:56:18.526Z,2.42
2023-04-23T11:58:46.262Z,2.55
2023-04-23T12:01:14.399Z,2.60
2023-04-23T12:03:42.163Z,3.30
2023-04-23T12:06:09.899Z,3.47
2023-04-23T12:08:40.304Z,3.17
2023-04-23T12:11:08.041Z,3.22
2023-04-23T12:13:40.844Z,2.70
2023-04-23T12:16:10.861Z,2.85
2023-04-23T12:18:44.295Z,2.63
2023-04-23T12:21:13.779Z,2.42
2023-04-23T12:23:44.538Z,2.30
2023-04-23T12:26:13.725Z,2.80
2023-04-23T12:28:48.713Z,2.97
2023-04-23T12:31:21.155Z,2.60
2023-04-23T12:33:48.977Z,2.42
2023-04-23T12:36:17.367Z,2.55
2023-04-23T12:38:45.084Z,2.50
2023-04-23T12:41:12.809Z,2.50
2023-04-23T12:43:40.529Z,2.55
2023-04-23T12:46:09.611Z,2.97
2023-04-23T12:48:37.276Z,2.28
2023-04-23T12:51:06.585Z,2.22
2023-04-23T12:53:34.312Z,2.03
2023-04-23T12:56:02.001Z,2.38
2023-04-23T12:58:30.954Z,2.40
2023-04-23T13:00:58.734Z,2.67
2023-04-23T13:04:17.777Z,2.40
2023-04-23T13:06:45.431Z,2.42
2023-04-23T13:09:13.326Z,2.50
2023-04-23T13:11:42.057Z,2.67
2023-04-23T13:14:10.657Z,2.80
2023-04-23T13:16:38.400Z,2.65
2023-04-23T13:19:07.397Z,2.65
2023-04-23T13:21:37.560Z,2.75
2023-04-23T13:24:05.652Z,2.53
2023-04-23T13:26:33.415Z,2.72
2023-04-23T13:29:01.354Z,2.92
2023-04-23T13:31:29.368Z,2.88
2023-04-23T13:33:57.508Z,2.33
2023-04-23T13:36:26.910Z,2.60
2023-04-23T13:39:10.051Z,2.95
2023-04-23T13:41:37.864Z,2.72
2023-04-23T13:44:05.523Z,2.60
2023-04-23T13:46:33.384Z,3.13
2023-04-23T13:49:01.190Z,2.90
2023-04-23T13:51:35.224Z,2.95
2023-04-23T13:54:03.663Z,2.97
2023-04-23T13:56:32.242Z,2.80
2023-04-23T13:59:17.509Z,2.72
2023-04-23T14:01:47.215Z,3.00
2023-04-23T14:04:15.108Z,2.58
2023-04-23T14:06:44.657Z,2.63
2023-04-23T14:09:12.704Z,2.92
2023-04-23T14:11:41.480Z,3.95
2023-04-23T14:14:09.385Z,3.30
2023-04-23T14:16:37.186Z,3.60
2023-04-23T14:19:04.837Z,3.70
2023-04-23T14:21:32.502Z,3.10
2023-04-23T14:24:10.090Z,3.22
2023-04-23T14:26:48.854Z,3.28
2023-04-23T14:29:25.245Z,3.33
2023-04-23T14:31:53.187Z,3.20
2023-04-23T14:34:21.102Z,3.10
2023-04-23T14:36:49.228Z,3.53
2023-04-23T14:39:18.620Z,3.67
2023-04-23T14:41:46.331Z,3.83
2023-04-23T14:44:14.104Z,3.90
2023-04-23T14:46:41.790Z,2.90
2023-04-23T14:49:09.705Z,3.38
2023-04-23T14:51:37.900Z,3.20
2023-04-23T14:54:06.222Z,3.80
2023-04-23T14:56:35.293Z,3.33
2023-04-23T14:59:03.150Z,3.03
2023-04-23T15:01:31.263Z,3.00
2023-04-23T15:03:59.014Z,3.22
2023-04-23T15:06:26.813Z,3.17
2023-04-23T15:08:54.493Z,3.60
2023-04-23T15:11:22.201Z,3.50
2023-04-23T15:13:57.756Z,3.15
2023-04-23T15:19:14.421Z,3.70
2023-04-23T15:21:43.043Z,3.60
2023-04-23T15:24:10.990Z,3.40
2023-04-23T15:26:38.994Z,3.22
2023-04-23T15:29:09.882Z,3.50
2023-04-23T15:31:37.875Z,3.60
2023-04-23T15:34:08.616Z,4.07
2023-04-23T15:36:37.443Z,3.85
2023-04-23T15:39:06.306Z,3.72
2023-04-23T15:41:34.096Z,4.70
2023-04-23T15:44:02.855Z,3.97
2023-04-23T15:46:32.036Z,3.97
2023-04-23T15:49:00.145Z,4.40
2023-04-23T15:51:27.828Z,3.72
2023-04-23T15:53:55.520Z,4.28
2023-04-23T15:56:23.210Z,4.25
2023-04-23T15:58:50.951Z,3.90
2023-04-23T16:01:18.676Z,3.30
2023-04-23T16:04:01.813Z,3.83
2023-04-23T16:06:35.426Z,3.38
2023-04-23T16:09:06.584Z,3.22
2023-04-23T16:11:34.871Z,3.10
2023-04-23T16:14:03.550Z,2.60
2023-04-23T16:16:31.618Z,2.70
2023-04-23T16:19:01.888Z,2.40
2023-04-23T16:21:29.635Z,2.28
2023-04-23T16:23:57.317Z,2.03
2023-04-23T16:26:25.346Z,1.90
2023-04-23T16:29:05.703Z,2.05
2023-04-23T16:31:39.421Z,2.13
2023-04-23T16:34:08.570Z,2.05
2023-04-23T16:36:36.353Z,1.95
2023-04-23T16:39:04.308Z,1.95
2023-04-23T16:41:32.514Z,2.30
2023-04-23T16:44:00.276Z,2.30
2023-04-23T16:46:30.873Z,2.05
2023-04-23T16:48:58.969Z,2.30
2023-04-23T16:51:29.364Z,2.42
2023-04-23T16:53:57.617Z,2.10
2023-04-23T16:56:25.503Z,2.25
2023-04-23T16:58:53.267Z,2.22
2023-04-23T17:01:20.986Z,2.60
2023-04-23T17:03:48.870Z,2.45
2023-04-23T17:06:25.759Z,2.35
2023-04-23T17:08:55.250Z,6.47
2023-04-23T17:11:24.572Z,2.15
2023-04-23T17:13:52.572Z,2.05
2023-04-23T17:16:20.552Z,7.28
2023-04-23T17:18:48.252Z,2.63
2023-04-23T17:21:16.022Z,3.10
2023-04-23T17:23:43.693Z,2.25
2023-04-23T17:26:12.794Z,3.17
2023-04-23T17:28:41.469Z,3.50
2023-04-23T17:31:09.366Z,3.10
2023-04-23T17:33:37.147Z,3.55
2023-04-23T17:36:05.658Z,2.83
2023-04-23T17:38:34.371Z,2.30
2023-04-23T17:41:03.177Z,2.80
2023-04-23T17:43:34.839Z,2.80
2023-04-23T17:46:03.174Z,3.03
2023-04-23T17:48:31.472Z,2.83
2023-04-23T17:50:59.220Z,3.58
2023-04-23T17:53:26.901Z,3.10
2023-04-23T17:55:59.405Z,3.53
2023-04-23T17:58:27.295Z,3.30
2023-04-23T18:00:56.709Z,3.50
2023-04-23T18:03:24.723Z,3.22
2023-04-23T18:05:52.671Z,2.78
2023-04-23T18:08:21.237Z,3.42
2023-04-23T18:10:49.161Z,3.28
2023-04-23T18:13:17.072Z,3.35
2023-04-23T18:15:49.452Z,4.05
2023-04-23T18:18:18.869Z,3.50
2023-04-23T18:20:47.442Z,4.47
2023-04-23T18:23:15.254Z,3.90
2023-04-23T18:25:43.038Z,4.43
2023-04-23T18:28:10.892Z,5.97
2023-04-23T18:30:39.025Z,7.57
2023-04-23T18:33:12.675Z,7.85
2023-04-23T18:35:43.884Z,8.05
2023-04-23T18:38:19.016Z,7.60
2023-04-23T18:40:46.745Z,8.00
2023-04-23T18:43:14.454Z,8.23
2023-04-23T18:45:42.189Z,8.13
2023-04-23T18:48:46.672Z,7.78
2023-04-23T18:51:26.472Z,7.05
2023-04-23T18:53:54.335Z,7.82
2023-04-23T18:56:21.987Z,6.03
2023-04-23T18:58:49.709Z,4.53
2023-04-23T19:01:17.640Z,2.00
2023-04-23T19:03:45.543Z,1.98
2023-04-23T19:06:13.495Z,1.90
2023-04-23T19:08:43.021Z,2.25
2023-04-23T19:11:10.844Z,2.33
2023-04-23T19:13:38.547Z,2.17
2023-04-23T19:16:06.341Z,2.17
2023-04-23T19:18:34.154Z,2.10
2023-04-23T19:21:01.839Z,2.30
2023-04-23T19:23:29.463Z,3.10
2023-04-23T19:25:58.516Z,2.35
2023-04-23T19:28:26.251Z,1.52
2023-04-23T19:30:53.985Z,1.88
2023-04-23T19:33:21.775Z,1.95
2023-04-23T19:35:50.058Z,2.35
2023-04-23T19:38:17.804Z,2.10
2023-04-23T19:40:45.716Z,2.05
2023-04-23T19:43:15.061Z,2.45
2023-04-23T19:45:42.690Z,2.63
2023-04-23T19:48:10.553Z,3.03
2023-04-23T19:50:38.232Z,2.88
2023-04-23T19:53:06.589Z,2.45
2023-04-23T19:55:34.364Z,2.40
2023-04-23T19:58:06.191Z,2.30
2023-04-23T20:00:41.404Z,2.72
2023-04-23T20:03:09.730Z,3.58
2023-04-23T20:05:37.616Z,2.90
2023-04-23T20:08:11.394Z,3.40
2023-04-23T20:10:39.194Z,4.32
2023-04-23T20:13:06.976Z,4.25
2023-04-23T20:15:34.860Z,3.60
2023-04-23T20:18:04.083Z,3.60
2023-04-23T20:20:34.151Z,4.38
2023-04-23T20:23:01.947Z,4.43
2023-04-23T20:25:29.800Z,4.75
2023-04-23T20:27:57.811Z,3.92
2023-04-23T20:30:25.531Z,4.50
2023-04-23T20:32:53.312Z,5.50
2023-04-23T20:35:22.417Z,3.25
2023-04-23T20:37:50.104Z,3.40
2023-04-23T20:40:18.936Z,3.28
2023-04-23T20:42:51.426Z,3.42
2023-04-23T20:45:20.566Z,3.92
2023-04-23T20:47:48.862Z,3.50
2023-04-23T20:50:16.700Z,3.50
2023-04-23T20:52:45.873Z,3.58
2023-04-23T20:55:13.525Z,3.58
2023-04-23T20:57:41.277Z,3.38
2023-04-23T21:00:11.891Z,3.47
2023-04-23T21:02:39.704Z,3.60
2023-04-23T21:05:08.667Z,3.20
2023-04-23T21:07:36.860Z,3.70
2023-04-23T21:10:07.045Z,3.38
2023-04-23T21:12:34.927Z,3.28
2023-04-23T21:15:02.627Z,3.40
2023-04-23T21:17:30.412Z,3.38
2023-04-23T21:19:58.112Z,2.95
2023-04-23T21:22:25.824Z,3.70
2023-04-23T21:24:53.520Z,3.80
2023-04-23T21:27:22.563Z,3.45
2023-04-23T21:29:50.555Z,3.30
2023-04-23T21:32:18.281Z,3.58
2023-04-23T21:34:46.220Z,3.42
2023-04-23T21:37:13.932Z,3.38
2023-04-23T21:39:41.869Z,2.92
2023-04-23T21:42:09.908Z,3.20
2023-04-23T21:44:39.770Z,3.17
2023-04-23T21:47:07.855Z,3.95
2023-04-23T21:49:35.783Z,3.92
2023-04-23T21:52:03.512Z,3.78
2023-04-23T21:54:31.243Z,3.80
2023-04-23T21:56:59.153Z,4.40
2023-04-23T21:59:26.930Z,4.13
2023-04-23T22:01:55.978Z,4.03
2023-04-23T22:04:27.558Z,3.83
2023-04-23T22:06:55.788Z,3.58
2023-04-23T22:09:23.445Z,4.03
2023-04-23T22:12:01.049Z,3.72
2023-04-23T22:14:29.454Z,4.32
2023-04-23T22:16:59.459Z,4.00
2023-04-23T22:19:27.191Z,3.95
2023-04-23T22:21:55.227Z,3.97
2023-04-23T22:24:23.405Z,3.15
2023-04-23T22:26:51.209Z,3.42
2023-04-23T22:29:18.853Z,3.88
2023-04-23T22:31:46.519Z,3.55
2023-04-23T22:34:15.767Z,3.50
2023-04-23T22:36:43.570Z,3.92
2023-04-23T22:39:12.503Z,3.45
2023-04-23T22:41:40.390Z,3.28
2023-04-23T22:44:09.242Z,3.38
2023-04-23T22:46:37.269Z,3.00
2023-04-23T22:49:07.937Z,3.38
2023-04-23T22:51:38.653Z,3.00
2023-04-23T23:01:18.242Z,2.60
2023-04-23T23:03:45.982Z,2.75
2023-04-23T23:06:13.690Z,2.78
2023-04-23T23:08:41.354Z,2.95
2023-04-23T23:11:09.077Z,2.47
2023-04-23T23:13:37.051Z,2.83
2023-04-23T23:16:06.548Z,2.45
2023-04-23T23:18:34.226Z,2.00
2023-04-23T23:21:01.917Z,2.58
2023-04-23T23:23:29.645Z,2.22
2023-04-23T23:25:59.877Z,2.45
2023-04-23T23:28:28.009Z,2.45
2023-04-23T23:30:55.856Z,2.30
2023-04-23T23:33:25.090Z,2.20
2023-04-23T23:35:52.778Z,2.30
2023-04-23T23:38:20.825Z,2.38
2023-04-23T23:40:48.505Z,2.17
2023-04-23T23:43:16.117Z,2.08
2023-04-23T23:45:43.766Z,2.15
2023-04-23T23:48:11.459Z,2.20
2023-04-23T23:50:40.690Z,2.05
2023-04-23T23:53:08.379Z,2.17
2023-04-23T23:55:37.711Z,2.05
2023-04-23T23:58:06.166Z,2.63
